createdAt,value
2017-03-25T00:00:03.201Z,981.22
2017-03-25T00:01:11.972Z,981.19
2017-03-25T00:02:20.743Z,981.22
2017-03-25T00:03:29.508Z,981.23
2017-03-25T00:04:38.266Z,981.24
2017-03-25T00:05:47.029Z,981.25
2017-03-25T00:06:55.772Z,981.26
2017-03-25T00:08:04.780Z,981.3
2017-03-25T00:09:13.841Z,981.28
2017-03-25T00:10:22.589Z,981.28
2017-03-25T00:11:31.288Z,981.24
2017-03-25T00:12:40.557Z,981.22
2017-03-25T00:13:49.624Z,981.2
2017-03-25T00:14:58.365Z,981.22
2017-03-25T00:16:07.734Z,981.17
2017-03-25T00:17:16.453Z,981.24
2017-03-25T00:18:25.208Z,981.21
2017-03-25T00:19:33.915Z,981.19
2017-03-25T00:20:42.688Z,981.24
2017-03-25T00:21:51.449Z,981.23
2017-03-25T00:23:00.415Z,981.21
2017-03-25T00:24:09.480Z,981.24
2017-03-25T00:25:18.229Z,981.22
2017-03-25T00:26:26.940Z,981.2
2017-03-25T00:27:35.705Z,981.18
2017-03-25T00:28:44.767Z,981.15
2017-03-25T00:29:53.521Z,981.1
2017-03-25T00:31:02.582Z,981.1
2017-03-25T00:32:11.350Z,981.07
2017-03-25T00:33:20.103Z,981.06
2017-03-25T00:34:29.067Z,981.11
2017-03-25T00:35:38.131Z,981.11
2017-03-25T00:36:46.882Z,981.11
2017-03-25T00:37:55.587Z,981.19
2017-03-25T00:39:04.348Z,981.18
2017-03-25T00:40:13.108Z,981.18
2017-03-25T00:41:22.169Z,981.19
2017-03-25T00:42:30.935Z,981.17
2017-03-25T00:43:39.676Z,981.2
2017-03-25T00:44:48.686Z,981.17
2017-03-25T00:45:57.446Z,981.14
2017-03-25T00:47:06.209Z,981.09
2017-03-25T00:48:14.968Z,981.1
2017-03-25T00:49:24.048Z,981.09
2017-03-25T00:50:33.114Z,981.11
2017-03-25T00:51:41.890Z,981.09
2017-03-25T00:52:50.646Z,981.08
2017-03-25T00:53:59.363Z,981.1
2017-03-25T00:55:08.723Z,981.06
2017-03-25T00:56:17.480Z,981.1
2017-03-25T00:57:26.548Z,981.11
2017-03-25T00:58:35.908Z,981.08
2017-03-25T00:59:45.023Z,981.11
2017-03-25T01:00:54.078Z,981.12
2017-03-25T01:02:03.125Z,981.11
2017-03-25T01:03:11.886Z,981.14
2017-03-25T01:04:20.955Z,981.14
2017-03-25T01:05:29.724Z,981.17
2017-03-25T01:06:38.482Z,981.11
2017-03-25T01:07:47.246Z,981.07
2017-03-25T01:08:56.313Z,981.07
2017-03-25T01:10:05.376Z,981.06
2017-03-25T01:11:14.144Z,981.04
2017-03-25T01:12:22.907Z,981.04
2017-03-25T01:13:31.667Z,981
2017-03-25T01:14:40.417Z,981.03
2017-03-25T01:15:49.170Z,981.04
2017-03-25T01:16:57.934Z,981.02
2017-03-25T01:18:06.677Z,981.01
2017-03-25T01:19:15.681Z,981
2017-03-25T01:20:24.585Z,981
2017-03-25T01:21:33.591Z,980.98
2017-03-25T01:22:42.558Z,980.94
2017-03-25T01:23:51.624Z,980.97
2017-03-25T01:25:00.387Z,980.89
2017-03-25T01:26:09.450Z,980.9
2017-03-25T01:27:18.251Z,980.93
2017-03-25T01:28:27.013Z,980.91
2017-03-25T01:29:35.772Z,980.88
2017-03-25T01:30:44.530Z,980.88
2017-03-25T01:31:53.295Z,980.87
2017-03-25T01:33:02.906Z,980.83
2017-03-25T01:34:11.655Z,980.88
2017-03-25T01:35:20.660Z,980.83
2017-03-25T01:36:29.706Z,980.88
2017-03-25T01:37:38.401Z,980.83
2017-03-25T01:38:47.101Z,980.85
2017-03-25T01:39:55.860Z,980.85
2017-03-25T01:41:04.622Z,980.83
2017-03-25T01:42:13.381Z,980.8
2017-03-25T01:43:22.543Z,980.82
2017-03-25T01:44:31.617Z,980.77
2017-03-25T01:45:40.374Z,980.78
2017-03-25T01:46:49.736Z,980.78
2017-03-25T01:47:58.495Z,980.78
2017-03-25T01:49:07.261Z,980.78
2017-03-25T01:50:16.024Z,980.79
2017-03-25T01:51:24.787Z,980.76
2017-03-25T01:52:33.843Z,980.75
2017-03-25T01:53:42.596Z,980.78
2017-03-25T01:54:51.642Z,980.75
2017-03-25T01:56:00.721Z,980.73
2017-03-25T01:57:09.481Z,980.7
2017-03-25T01:58:18.246Z,980.71
2017-03-25T01:59:26.995Z,980.66
2017-03-25T02:00:35.743Z,980.6
2017-03-25T02:01:44.739Z,980.64
2017-03-25T02:02:53.799Z,980.6
2017-03-25T02:04:02.538Z,980.61
2017-03-25T02:05:11.280Z,980.55
2017-03-25T02:06:20.649Z,980.61
2017-03-25T02:07:29.416Z,980.62
2017-03-25T02:08:38.163Z,980.6
2017-03-25T02:09:47.172Z,980.59
2017-03-25T02:10:55.931Z,980.62
2017-03-25T02:12:04.628Z,980.64
2017-03-25T02:13:13.324Z,980.66
2017-03-25T02:14:22.397Z,980.63
2017-03-25T02:15:31.353Z,980.64
2017-03-25T02:16:40.399Z,980.61
2017-03-25T02:17:49.105Z,980.59
2017-03-25T02:18:58.179Z,980.53
2017-03-25T02:20:06.938Z,980.61
2017-03-25T02:21:16.303Z,980.62
2017-03-25T02:22:25.367Z,980.61
2017-03-25T02:23:34.130Z,980.55
2017-03-25T02:24:42.885Z,980.55
2017-03-25T02:25:51.651Z,980.54
2017-03-25T02:27:00.413Z,980.56
2017-03-25T02:28:09.152Z,980.54
2017-03-25T02:29:17.844Z,980.5
2017-03-25T02:30:26.640Z,980.49
2017-03-25T02:31:35.708Z,980.53
2017-03-25T02:32:44.671Z,980.52
2017-03-25T02:33:53.979Z,980.51
2017-03-25T02:35:03.356Z,980.52
2017-03-25T02:36:12.130Z,980.48
2017-03-25T02:37:21.189Z,980.46
2017-03-25T02:38:29.894Z,980.5
2017-03-25T02:39:38.699Z,980.46
2017-03-25T02:40:47.759Z,980.5
2017-03-25T02:41:56.515Z,980.5
2017-03-25T02:43:05.583Z,980.5
2017-03-25T02:44:14.342Z,980.53
2017-03-25T02:45:23.404Z,980.54
2017-03-25T02:46:32.164Z,980.5
2017-03-25T02:47:41.222Z,980.5
2017-03-25T02:48:49.969Z,980.46
2017-03-25T02:49:58.673Z,980.43
2017-03-25T02:51:07.437Z,980.44
2017-03-25T02:52:16.497Z,980.5
2017-03-25T02:53:25.863Z,980.5
2017-03-25T02:54:34.933Z,980.52
2017-03-25T02:55:44.304Z,980.47
2017-03-25T02:56:53.431Z,980.51
2017-03-25T02:58:02.809Z,980.51
2017-03-25T02:59:12.490Z,980.5
2017-03-25T03:00:22.168Z,980.5
2017-03-25T03:01:31.841Z,980.47
2017-03-25T03:02:41.224Z,980.46
2017-03-25T03:03:50.306Z,980.46
2017-03-25T03:05:00.298Z,980.49
2017-03-25T03:06:09.058Z,980.46
2017-03-25T03:07:18.107Z,980.5
2017-03-25T03:08:27.151Z,980.47
2017-03-25T03:09:36.472Z,980.46
2017-03-25T03:10:45.535Z,980.48
2017-03-25T03:11:54.605Z,980.53
2017-03-25T03:13:03.971Z,980.53
2017-03-25T03:14:13.334Z,980.5
2017-03-25T03:15:22.401Z,980.47
2017-03-25T03:16:31.153Z,980.47
2017-03-25T03:17:39.954Z,980.43
2017-03-25T03:18:49.316Z,980.46
2017-03-25T03:19:58.338Z,980.42
2017-03-25T03:21:07.103Z,980.46
2017-03-25T03:22:15.869Z,980.49
2017-03-25T03:23:25.252Z,980.46
2017-03-25T03:24:34.622Z,980.46
2017-03-25T03:25:44.584Z,980.45
2017-03-25T03:26:53.895Z,980.43
2017-03-25T03:28:02.658Z,980.41
2017-03-25T03:29:12.641Z,980.44
2017-03-25T03:30:21.903Z,980.41
2017-03-25T03:31:30.665Z,980.38
2017-03-25T03:32:39.774Z,980.37
2017-03-25T03:33:48.879Z,980.39
2017-03-25T03:34:57.906Z,980.41
2017-03-25T03:36:06.971Z,980.36
2017-03-25T03:37:15.733Z,980.39
2017-03-25T03:38:24.800Z,980.37
2017-03-25T03:39:34.179Z,980.4
2017-03-25T03:40:43.243Z,980.36
2017-03-25T03:41:52.008Z,980.33
2017-03-25T03:43:01.394Z,980.33
2017-03-25T03:44:10.763Z,980.3
2017-03-25T03:45:19.827Z,980.32
2017-03-25T03:46:29.128Z,980.32
2017-03-25T03:47:37.832Z,980.35
2017-03-25T03:48:48.131Z,980.37
2017-03-25T03:49:57.512Z,980.37
2017-03-25T03:51:06.910Z,980.36
2017-03-25T03:52:15.696Z,980.34
2017-03-25T03:53:24.787Z,980.35
2017-03-25T03:54:33.894Z,980.33
2017-03-25T03:55:43.298Z,980.34
2017-03-25T03:56:52.704Z,980.36
2017-03-25T03:58:01.831Z,980.33
2017-03-25T03:59:10.927Z,980.31
2017-03-25T04:00:19.710Z,980.32
2017-03-25T04:01:29.111Z,980.3
2017-03-25T04:02:38.215Z,980.26
2017-03-25T04:03:47.933Z,980.3
2017-03-25T04:04:57.649Z,980.28
2017-03-25T04:06:06.427Z,980.26
2017-03-25T04:07:15.168Z,980.26
2017-03-25T04:08:24.561Z,980.27
2017-03-25T04:09:33.912Z,980.26
2017-03-25T04:10:43.629Z,980.23
2017-03-25T04:11:52.422Z,980.25
2017-03-25T04:13:01.527Z,980.28
2017-03-25T04:14:10.642Z,980.27
2017-03-25T04:15:19.737Z,980.28
2017-03-25T04:16:29.145Z,980.3
2017-03-25T04:17:38.548Z,980.34
2017-03-25T04:18:48.567Z,980.29
2017-03-25T04:19:57.983Z,980.33
2017-03-25T04:21:07.376Z,980.3
2017-03-25T04:22:16.465Z,980.33
2017-03-25T04:23:25.253Z,980.32
2017-03-25T04:24:34.642Z,980.29
2017-03-25T04:25:43.709Z,980.29
2017-03-25T04:26:53.098Z,980.28
2017-03-25T04:28:02.483Z,980.28
2017-03-25T04:29:12.147Z,980.3
2017-03-25T04:30:22.143Z,980.31
2017-03-25T04:31:30.980Z,980.33
2017-03-25T04:32:40.070Z,980.32
2017-03-25T04:33:50.027Z,980.31
2017-03-25T04:34:59.412Z,980.31
2017-03-25T04:36:08.794Z,980.33
2017-03-25T04:37:17.898Z,980.32
2017-03-25T04:38:27.242Z,980.27
2017-03-25T04:39:36.634Z,980.28
2017-03-25T04:40:46.032Z,980.29
2017-03-25T04:41:55.117Z,980.26
2017-03-25T04:43:04.207Z,980.31
2017-03-25T04:44:13.932Z,980.24
2017-03-25T04:45:23.544Z,980.25
2017-03-25T04:46:32.332Z,980.27
2017-03-25T04:47:41.114Z,980.28
2017-03-25T04:48:50.833Z,980.31
2017-03-25T04:50:00.526Z,980.31
2017-03-25T04:51:09.261Z,980.3
2017-03-25T04:52:18.350Z,980.3
2017-03-25T04:53:27.734Z,980.31
2017-03-25T04:54:37.368Z,980.31
2017-03-25T04:55:46.729Z,980.31
2017-03-25T04:56:55.505Z,980.31
2017-03-25T04:58:04.292Z,980.27
2017-03-25T04:59:13.701Z,980.27
2017-03-25T05:00:23.618Z,980.25
2017-03-25T05:01:32.656Z,980.29
2017-03-25T05:02:41.759Z,980.29
2017-03-25T05:03:51.782Z,980.28
2017-03-25T05:05:00.887Z,980.28
2017-03-25T05:06:10.592Z,980.26
2017-03-25T05:07:19.986Z,980.25
2017-03-25T05:08:29.827Z,980.25
2017-03-25T05:09:39.786Z,980.22
2017-03-25T05:10:48.884Z,980.23
2017-03-25T05:11:58.286Z,980.28
2017-03-25T05:13:07.662Z,980.25
2017-03-25T05:14:17.308Z,980.25
2017-03-25T05:15:27.001Z,980.24
2017-03-25T05:16:36.359Z,980.23
2017-03-25T05:17:45.097Z,980.24
2017-03-25T05:18:54.793Z,980.26
2017-03-25T05:20:04.494Z,980.25
2017-03-25T05:21:13.585Z,980.27
2017-03-25T05:22:22.678Z,980.26
2017-03-25T05:23:31.780Z,980.27
2017-03-25T05:24:42.111Z,980.27
2017-03-25T05:25:51.213Z,980.28
2017-03-25T05:27:00.303Z,980.31
2017-03-25T05:28:09.401Z,980.22
2017-03-25T05:29:18.503Z,980.29
2017-03-25T05:30:31.073Z,980.29
2017-03-25T05:31:40.714Z,980.31
2017-03-25T05:32:49.499Z,980.32
2017-03-25T05:33:58.907Z,980.27
2017-03-25T05:35:08.312Z,980.3
2017-03-25T05:36:17.109Z,980.25
2017-03-25T05:37:26.193Z,980.29
2017-03-25T05:38:35.239Z,980.25
2017-03-25T05:39:44.635Z,980.28
2017-03-25T05:40:53.377Z,980.29
2017-03-25T05:42:02.476Z,980.32
2017-03-25T05:43:11.576Z,980.32
2017-03-25T05:44:21.030Z,980.32
2017-03-25T05:45:30.419Z,980.35
2017-03-25T05:46:39.146Z,980.36
2017-03-25T05:47:47.922Z,980.35
2017-03-25T05:48:57.274Z,980.36
2017-03-25T05:50:06.412Z,980.37
2017-03-25T05:51:15.521Z,980.39
2017-03-25T05:52:24.298Z,980.36
2017-03-25T05:53:33.710Z,980.36
2017-03-25T05:54:43.117Z,980.42
2017-03-25T05:55:52.519Z,980.42
2017-03-25T05:57:01.301Z,980.4
2017-03-25T05:58:11.330Z,980.34
2017-03-25T05:59:20.423Z,980.4
2017-03-25T06:00:29.669Z,980.35
2017-03-25T06:01:38.748Z,980.36
2017-03-25T06:02:47.787Z,980.38
2017-03-25T06:03:57.204Z,980.38
2017-03-25T06:05:06.922Z,980.37
2017-03-25T06:06:16.629Z,980.32
2017-03-25T06:07:25.394Z,980.32
2017-03-25T06:08:35.044Z,980.34
2017-03-25T06:09:44.457Z,980.31
2017-03-25T06:10:53.810Z,980.29
2017-03-25T06:12:03.407Z,980.28
2017-03-25T06:13:12.362Z,980.29
2017-03-25T06:14:21.443Z,980.26
2017-03-25T06:15:30.534Z,980.3
2017-03-25T06:16:39.636Z,980.31
2017-03-25T06:17:48.739Z,980.29
2017-03-25T06:18:58.467Z,980.25
2017-03-25T06:20:07.575Z,980.27
2017-03-25T06:21:17.286Z,980.25
2017-03-25T06:22:26.071Z,980.23
2017-03-25T06:23:35.431Z,980.22
2017-03-25T06:24:45.142Z,980.17
2017-03-25T06:25:54.531Z,980.16
2017-03-25T06:27:03.568Z,980.13
2017-03-25T06:28:12.351Z,980.16
2017-03-25T06:29:21.749Z,980.17
2017-03-25T06:30:31.000Z,980.14
2017-03-25T06:31:39.788Z,980.13
2017-03-25T06:32:48.880Z,980.19
2017-03-25T06:33:58.278Z,980.15
2017-03-25T06:35:07.690Z,980.14
2017-03-25T06:36:16.490Z,980.16
2017-03-25T06:37:25.576Z,980.14
2017-03-25T06:38:34.818Z,980.13
2017-03-25T06:39:44.481Z,980.11
2017-03-25T06:40:54.854Z,980.1
2017-03-25T06:42:03.956Z,980.13
2017-03-25T06:43:12.741Z,980.11
2017-03-25T06:44:22.761Z,980.14
2017-03-25T06:45:31.556Z,980.13
2017-03-25T06:46:40.343Z,980.09
2017-03-25T06:47:49.119Z,980.09
2017-03-25T06:48:58.465Z,980.13
2017-03-25T06:50:08.060Z,980.18
2017-03-25T06:51:17.147Z,980.18
2017-03-25T06:52:26.237Z,980.18
2017-03-25T06:53:34.978Z,980.19
2017-03-25T06:54:44.676Z,980.22
2017-03-25T06:55:53.456Z,980.22
2017-03-25T06:57:02.553Z,980.23
2017-03-25T06:58:11.650Z,980.21
2017-03-25T06:59:20.749Z,980.22
2017-03-25T07:00:30.096Z,980.24
2017-03-25T07:01:39.184Z,980.2
2017-03-25T07:02:48.580Z,980.19
2017-03-25T07:03:57.665Z,980.19
2017-03-25T07:05:07.056Z,980.22
2017-03-25T07:06:16.099Z,980.22
2017-03-25T07:07:24.887Z,980.21
2017-03-25T07:08:34.288Z,980.24
2017-03-25T07:09:43.991Z,980.25
2017-03-25T07:10:53.081Z,980.25
2017-03-25T07:12:01.963Z,980.24
2017-03-25T07:13:11.310Z,980.29
2017-03-25T07:14:20.057Z,980.35
2017-03-25T07:15:29.438Z,980.37
2017-03-25T07:16:38.478Z,980.37
2017-03-25T07:17:47.565Z,980.38
2017-03-25T07:18:56.678Z,980.35
2017-03-25T07:20:06.083Z,980.36
2017-03-25T07:21:14.876Z,980.4
2017-03-25T07:22:24.282Z,980.41
2017-03-25T07:23:33.729Z,980.43
2017-03-25T07:24:43.754Z,980.4
2017-03-25T07:25:52.798Z,980.39
2017-03-25T07:27:01.832Z,980.38
2017-03-25T07:28:10.937Z,980.4
2017-03-25T07:29:20.023Z,980.37
2017-03-25T07:30:29.054Z,980.42
2017-03-25T07:31:37.785Z,980.43
2017-03-25T07:32:47.187Z,980.43
2017-03-25T07:33:56.594Z,980.43
2017-03-25T07:35:05.331Z,980.38
2017-03-25T07:36:14.443Z,980.39
2017-03-25T07:37:23.236Z,980.42
2017-03-25T07:38:32.327Z,980.38
2017-03-25T07:39:41.984Z,980.42
2017-03-25T07:40:51.109Z,980.47
2017-03-25T07:41:59.900Z,980.41
2017-03-25T07:43:08.997Z,980.45
2017-03-25T07:44:18.095Z,980.47
2017-03-25T07:45:28.121Z,980.48
2017-03-25T07:46:36.922Z,980.52
2017-03-25T07:47:45.713Z,980.5
2017-03-25T07:48:55.119Z,980.53
2017-03-25T07:50:04.846Z,980.53
2017-03-25T07:51:13.640Z,980.5
2017-03-25T07:52:22.407Z,980.5
2017-03-25T07:53:32.058Z,980.5
2017-03-25T07:54:41.156Z,980.47
2017-03-25T07:55:50.254Z,980.49
2017-03-25T07:56:59.354Z,980.49
2017-03-25T07:58:09.067Z,980.49
2017-03-25T07:59:18.774Z,980.49
2017-03-25T08:00:27.879Z,980.51
2017-03-25T08:01:36.656Z,980.45
2017-03-25T08:02:45.439Z,980.42
2017-03-25T08:03:55.756Z,980.44
2017-03-25T08:05:04.869Z,980.45
2017-03-25T08:06:14.316Z,980.39
2017-03-25T08:07:23.358Z,980.42
2017-03-25T08:08:32.434Z,980.38
2017-03-25T08:09:41.538Z,980.37
2017-03-25T08:10:50.629Z,980.4
2017-03-25T08:11:59.669Z,980.38
2017-03-25T08:13:08.459Z,980.37
2017-03-25T08:14:17.854Z,980.35
2017-03-25T08:15:27.577Z,980.38
2017-03-25T08:16:37.015Z,980.4
2017-03-25T08:17:46.357Z,980.4
2017-03-25T08:18:55.453Z,980.43
2017-03-25T08:20:04.863Z,980.41
2017-03-25T08:21:13.948Z,980.39
2017-03-25T08:22:22.987Z,980.4
2017-03-25T08:23:32.084Z,980.4
2017-03-25T08:24:41.741Z,980.37
2017-03-25T08:25:51.139Z,980.36
2017-03-25T08:26:59.921Z,980.37
2017-03-25T08:28:09.319Z,980.32
2017-03-25T08:29:18.114Z,980.34
2017-03-25T08:30:27.818Z,980.33
2017-03-25T08:31:36.612Z,980.31
2017-03-25T08:32:46.015Z,980.34
2017-03-25T08:33:55.443Z,980.34
2017-03-25T08:35:04.236Z,980.34
2017-03-25T08:36:13.024Z,980.33
2017-03-25T08:37:21.782Z,980.34
2017-03-25T08:38:30.886Z,980.35
2017-03-25T08:39:39.990Z,980.37
2017-03-25T08:40:48.756Z,980.31
2017-03-25T08:41:57.489Z,980.37
2017-03-25T08:43:06.476Z,980.38
2017-03-25T08:44:15.574Z,980.36
2017-03-25T08:45:24.678Z,980.33
2017-03-25T08:46:34.385Z,980.35
2017-03-25T08:47:43.777Z,980.36
2017-03-25T08:48:53.484Z,980.36
2017-03-25T08:50:02.323Z,980.38
2017-03-25T08:51:11.167Z,980.35
2017-03-25T08:52:19.938Z,980.4
2017-03-25T08:53:28.726Z,980.33
2017-03-25T08:54:37.820Z,980.35
2017-03-25T08:55:46.926Z,980.29
2017-03-25T08:56:56.034Z,980.35
2017-03-25T08:58:04.825Z,980.34
2017-03-25T08:59:14.231Z,980.33
2017-03-25T09:00:23.950Z,980.35
2017-03-25T09:01:33.062Z,980.32
2017-03-25T09:02:42.151Z,980.35
2017-03-25T09:03:51.572Z,980.34
2017-03-25T09:05:00.959Z,980.31
2017-03-25T09:06:09.696Z,980.31
2017-03-25T09:07:19.551Z,980.33
2017-03-25T09:08:28.901Z,980.31
2017-03-25T09:09:38.300Z,980.33
2017-03-25T09:10:47.945Z,980.28
2017-03-25T09:11:56.748Z,980.36
2017-03-25T09:13:05.842Z,980.31
2017-03-25T09:14:15.560Z,980.28
2017-03-25T09:15:24.909Z,980.36
2017-03-25T09:16:34.308Z,980.24
2017-03-25T09:17:43.416Z,980.26
2017-03-25T09:18:52.205Z,980.28
2017-03-25T09:20:01.613Z,980.3
2017-03-25T09:21:11.318Z,980.23
2017-03-25T09:22:20.110Z,980.25
2017-03-25T09:23:29.514Z,980.23
2017-03-25T09:24:38.923Z,980.21
2017-03-25T09:25:48.007Z,980.19
2017-03-25T09:26:57.251Z,980.21
2017-03-25T09:28:06.644Z,980.2
2017-03-25T09:29:15.991Z,980.14
2017-03-25T09:30:25.083Z,980.24
2017-03-25T09:31:34.129Z,980.18
2017-03-25T09:32:42.925Z,980.16
2017-03-25T09:33:52.933Z,980.28
2017-03-25T09:35:02.354Z,980.26
2017-03-25T09:36:11.145Z,980.27
2017-03-25T09:37:20.403Z,980.21
2017-03-25T09:38:29.497Z,980.19
2017-03-25T09:39:39.166Z,980.19
2017-03-25T09:40:48.283Z,980.25
2017-03-25T09:41:57.080Z,980.31
2017-03-25T09:43:06.488Z,980.12
2017-03-25T09:44:16.251Z,980.21
2017-03-25T09:45:25.974Z,980.23
2017-03-25T09:46:34.772Z,980.23
2017-03-25T09:47:43.864Z,980.23
2017-03-25T09:48:53.274Z,980.18
2017-03-25T09:50:03.010Z,980.34
2017-03-25T09:51:11.815Z,980.21
2017-03-25T09:52:20.612Z,980.26
2017-03-25T09:53:30.580Z,980.22
2017-03-25T09:54:39.393Z,980.23
2017-03-25T09:55:48.801Z,980.18
2017-03-25T09:56:57.901Z,980.2
2017-03-25T09:58:07.207Z,980.15
2017-03-25T09:59:15.994Z,980.06
2017-03-25T10:00:25.653Z,980.09
2017-03-25T10:01:34.455Z,980.14
2017-03-25T10:02:43.877Z,980.11
2017-03-25T10:03:53.605Z,980.14
2017-03-25T10:05:02.997Z,980.14
2017-03-25T10:06:11.742Z,980.18
2017-03-25T10:07:20.843Z,980.13
2017-03-25T10:08:30.150Z,980.08
2017-03-25T10:09:39.858Z,980.08
2017-03-25T10:10:49.530Z,980.08
2017-03-25T10:11:58.623Z,980.1
2017-03-25T10:13:07.397Z,980.06
2017-03-25T10:14:16.505Z,980.02
2017-03-25T10:15:25.604Z,980.03
2017-03-25T10:16:34.865Z,980.02
2017-03-25T10:17:43.654Z,979.98
2017-03-25T10:18:53.060Z,979.93
2017-03-25T10:20:02.489Z,979.87
2017-03-25T10:21:11.895Z,979.85
2017-03-25T10:22:20.996Z,979.88
2017-03-25T10:23:30.656Z,979.89
2017-03-25T10:24:40.671Z,979.84
2017-03-25T10:25:49.476Z,979.86
2017-03-25T10:26:58.552Z,979.94
2017-03-25T10:28:07.346Z,979.85
2017-03-25T10:29:16.763Z,979.81
2017-03-25T10:30:25.873Z,979.81
2017-03-25T10:31:35.018Z,979.87
2017-03-25T10:32:44.725Z,979.83
2017-03-25T10:33:54.160Z,979.78
2017-03-25T10:35:02.957Z,979.78
2017-03-25T10:36:12.363Z,979.72
2017-03-25T10:37:21.752Z,979.68
2017-03-25T10:38:30.800Z,979.68
2017-03-25T10:39:40.210Z,979.66
2017-03-25T10:40:49.613Z,979.65
2017-03-25T10:41:58.482Z,979.63
2017-03-25T10:43:08.241Z,979.65
2017-03-25T10:44:17.857Z,979.57
2017-03-25T10:45:27.759Z,979.62
2017-03-25T10:46:36.861Z,979.61
2017-03-25T10:47:45.776Z,979.59
2017-03-25T10:48:55.422Z,979.62
2017-03-25T10:50:04.770Z,979.5
2017-03-25T10:51:14.160Z,979.5
2017-03-25T10:52:22.907Z,979.49
2017-03-25T10:53:31.702Z,979.48
2017-03-25T10:54:41.002Z,979.48
2017-03-25T10:55:50.106Z,979.52
2017-03-25T10:56:58.901Z,979.5
2017-03-25T10:58:07.677Z,979.46
2017-03-25T10:59:16.725Z,979.46
2017-03-25T11:00:25.830Z,979.5
2017-03-25T11:01:34.620Z,979.36
2017-03-25T11:02:43.709Z,979.42
2017-03-25T11:03:52.749Z,979.39
2017-03-25T11:05:02.453Z,979.42
2017-03-25T11:06:11.494Z,979.42
2017-03-25T11:07:20.888Z,979.41
2017-03-25T11:08:29.633Z,979.44
2017-03-25T11:09:39.658Z,979.4
2017-03-25T11:10:49.365Z,979.34
2017-03-25T11:11:58.447Z,979.39
2017-03-25T11:13:07.813Z,979.38
2017-03-25T11:14:17.508Z,979.44
2017-03-25T11:15:27.171Z,979.36
2017-03-25T11:16:36.279Z,979.29
2017-03-25T11:17:45.069Z,979.3
2017-03-25T11:18:54.734Z,979.35
2017-03-25T11:20:04.778Z,979.27
2017-03-25T11:21:13.883Z,979.3
2017-03-25T11:22:22.980Z,979.36
2017-03-25T11:23:32.071Z,979.4
2017-03-25T11:24:41.416Z,979.31
2017-03-25T11:25:51.325Z,979.29
2017-03-25T11:27:00.431Z,979.4
2017-03-25T11:28:09.843Z,979.32
2017-03-25T11:29:20.164Z,979.23
2017-03-25T11:30:29.829Z,979.24
2017-03-25T11:31:38.931Z,979.28
2017-03-25T11:32:47.781Z,979.27
2017-03-25T11:33:56.573Z,979.25
2017-03-25T11:35:05.982Z,979.21
2017-03-25T11:36:15.381Z,979.26
2017-03-25T11:37:24.115Z,979.27
2017-03-25T11:38:33.161Z,979.24
2017-03-25T11:39:42.839Z,979.22
2017-03-25T11:40:51.952Z,979.15
2017-03-25T11:42:01.341Z,979.14
2017-03-25T11:43:10.085Z,979.12
2017-03-25T11:44:19.824Z,979.11
2017-03-25T11:45:29.397Z,979.18
2017-03-25T11:46:38.863Z,979.16
2017-03-25T11:47:48.275Z,979.11
2017-03-25T11:48:57.385Z,979.07
2017-03-25T11:50:06.806Z,979.05
2017-03-25T11:51:16.216Z,979.13
2017-03-25T11:52:25.638Z,979.13
2017-03-25T11:53:34.733Z,979.05
2017-03-25T11:54:44.088Z,979.08
2017-03-25T11:55:53.485Z,979.09
2017-03-25T11:57:02.537Z,979.03
2017-03-25T11:58:11.637Z,979.05
2017-03-25T11:59:20.742Z,978.96
2017-03-25T12:00:30.164Z,978.99
2017-03-25T12:01:40.179Z,978.92
2017-03-25T12:02:48.980Z,978.93
2017-03-25T12:03:59.007Z,978.9
2017-03-25T12:05:08.735Z,978.85
2017-03-25T12:06:18.153Z,978.78
2017-03-25T12:07:27.257Z,978.72
2017-03-25T12:08:36.775Z,978.69
2017-03-25T12:09:45.882Z,978.63
2017-03-25T12:10:54.984Z,978.67
2017-03-25T12:12:04.081Z,978.68
2017-03-25T12:13:13.446Z,978.62
2017-03-25T12:14:23.172Z,978.6
2017-03-25T12:15:32.590Z,978.56
2017-03-25T12:16:41.401Z,978.52
2017-03-25T12:17:50.214Z,978.53
2017-03-25T12:18:59.628Z,978.52
2017-03-25T12:20:09.345Z,978.46
2017-03-25T12:21:18.436Z,978.47
2017-03-25T12:22:27.178Z,978.49
2017-03-25T12:23:36.894Z,978.46
2017-03-25T12:24:46.006Z,978.48
2017-03-25T12:25:55.113Z,978.42
2017-03-25T12:27:04.521Z,978.35
2017-03-25T12:28:13.936Z,978.35
2017-03-25T12:29:23.962Z,978.4
2017-03-25T12:30:33.319Z,978.33
2017-03-25T12:31:42.662Z,978.35
2017-03-25T12:32:51.456Z,978.25
2017-03-25T12:34:00.868Z,978.24
2017-03-25T12:35:09.968Z,978.2
2017-03-25T12:36:19.020Z,978.18
2017-03-25T12:37:28.044Z,978.14
2017-03-25T12:38:37.701Z,978.16
2017-03-25T12:39:46.755Z,978.15
2017-03-25T12:40:56.160Z,978.08
2017-03-25T12:42:05.255Z,978.13
2017-03-25T12:43:14.362Z,978.06
2017-03-25T12:44:23.455Z,978.1
2017-03-25T12:45:32.562Z,978.05
2017-03-25T12:46:41.367Z,977.98
2017-03-25T12:47:50.490Z,978
2017-03-25T12:49:00.208Z,977.93
2017-03-25T12:50:09.318Z,977.9
2017-03-25T12:51:18.118Z,977.93
2017-03-25T12:52:27.216Z,977.92
2017-03-25T12:53:36.004Z,977.9
2017-03-25T12:54:45.723Z,977.89
2017-03-25T12:55:54.800Z,977.91
2017-03-25T12:57:04.146Z,977.96
2017-03-25T12:58:13.809Z,977.9
2017-03-25T12:59:23.204Z,977.91
2017-03-25T13:00:32.555Z,977.81
2017-03-25T13:01:41.650Z,977.9
2017-03-25T13:02:50.764Z,977.88
2017-03-25T13:04:00.184Z,977.83
2017-03-25T13:05:08.981Z,977.84
2017-03-25T13:06:18.080Z,977.73
2017-03-25T13:07:27.222Z,977.73
2017-03-25T13:08:36.329Z,977.67
2017-03-25T13:09:45.736Z,977.68
2017-03-25T13:10:54.839Z,977.65
2017-03-25T13:12:04.543Z,977.65
2017-03-25T13:13:13.594Z,977.67
2017-03-25T13:14:22.751Z,977.67
2017-03-25T13:15:32.784Z,977.63
2017-03-25T13:16:42.135Z,977.62
2017-03-25T13:17:51.265Z,977.62
2017-03-25T13:19:00.689Z,977.67
2017-03-25T13:20:09.787Z,977.63
2017-03-25T13:21:19.483Z,977.57
2017-03-25T13:22:28.284Z,977.57
2017-03-25T13:23:37.574Z,977.56
2017-03-25T13:24:46.936Z,977.52
2017-03-25T13:25:56.331Z,977.43
2017-03-25T13:27:05.073Z,977.48
2017-03-25T13:28:13.877Z,977.43
2017-03-25T13:29:23.898Z,977.47
2017-03-25T13:30:32.996Z,977.4
2017-03-25T13:31:41.789Z,977.4
2017-03-25T13:32:50.888Z,977.38
2017-03-25T13:33:59.666Z,977.39
2017-03-25T13:35:09.323Z,977.34
2017-03-25T13:36:18.422Z,977.32
2017-03-25T13:37:27.319Z,977.32
2017-03-25T13:38:36.715Z,977.26
2017-03-25T13:39:46.262Z,977.29
2017-03-25T13:40:56.218Z,977.31
2017-03-25T13:42:05.316Z,977.3
2017-03-25T13:43:14.096Z,977.29
2017-03-25T13:44:23.468Z,977.29
2017-03-25T13:45:32.931Z,977.22
2017-03-25T13:46:42.345Z,977.25
2017-03-25T13:47:51.754Z,977.25
2017-03-25T13:49:01.216Z,977.2
2017-03-25T13:50:10.925Z,977.16
2017-03-25T13:51:20.283Z,977.13
2017-03-25T13:52:29.079Z,977.05
2017-03-25T13:53:38.485Z,977.14
2017-03-25T13:54:47.903Z,977.07
2017-03-25T13:55:57.314Z,977.07
2017-03-25T13:57:06.111Z,977.11
2017-03-25T13:58:15.213Z,977.03
2017-03-25T13:59:25.197Z,977.06
2017-03-25T14:00:34.254Z,976.93
2017-03-25T14:01:43.330Z,977.08
2017-03-25T14:02:52.124Z,977.04
2017-03-25T14:04:01.499Z,976.93
2017-03-25T14:05:10.531Z,976.94
2017-03-25T14:06:19.573Z,976.95
2017-03-25T14:07:28.385Z,976.84
2017-03-25T14:08:37.793Z,976.86
2017-03-25T14:09:47.217Z,976.9
2017-03-25T14:10:56.012Z,976.89
2017-03-25T14:12:05.117Z,976.85
2017-03-25T14:13:14.519Z,976.87
2017-03-25T14:14:23.628Z,976.95
2017-03-25T14:15:32.419Z,976.87
2017-03-25T14:16:41.516Z,976.88
2017-03-25T14:17:50.605Z,976.89
2017-03-25T14:18:59.755Z,976.86
2017-03-25T14:20:09.776Z,976.87
2017-03-25T14:21:18.877Z,976.87
2017-03-25T14:22:28.289Z,976.87
2017-03-25T14:23:38.008Z,976.89
2017-03-25T14:24:47.119Z,976.82
2017-03-25T14:25:56.841Z,976.82